sensor_id;sensor_type;location;lat;lon;timestamp;temperature;humidity
18426;DHT22;9340;48.756;9.226;2024-02-14T00:02:21;2.30;99.90
18426;DHT22;9340;48.756;9.226;2024-02-14T00:04:47;2.30;99.90
18426;DHT22;9340;48.756;9.226;2024-02-14T00:07:14;2.20;99.90
18426;DHT22;9340;48.756;9.226;2024-02-14T00:09:41;2.10;99.90
18426;DHT22;9340;48.756;9.226;2024-02-14T00:12:07;2.20;99.90
18426;DHT22;9340;48.756;9.226;2024-02-14T00:14:36;2.20;99.90
18426;DHT22;9340;48.756;9.226;2024-02-14T00:17:05;2.30;99.90
18426;DHT22;9340;48.756;9.226;2024-02-14T00:19:32;2.30;99.90
18426;DHT22;9340;48.756;9.226;2024-02-14T00:21:59;2.40;99.90
18426;DHT22;9340;48.756;9.226;2024-02-14T00:24:26;2.50;99.90
18426;DHT22;9340;48.756;9.226;2024-02-14T00:26:54;2.50;99.90
18426;DHT22;9340;48.756;9.226;2024-02-14T00:29:22;2.50;99.90
18426;DHT22;9340;48.756;9.226;2024-02-14T00:31:49;2.50;99.90
18426;DHT22;9340;48.756;9.226;2024-02-14T00:34:17;2.50;99.90
18426;DHT22;9340;48.756;9.226;2024-02-14T00:36:44;2.60;99.90
18426;DHT22;9340;48.756;9.226;2024-02-14T00:39:12;2.70;99.90
18426;DHT22;9340;48.756;9.226;2024-02-14T00:41:38;2.70;99.90
18426;DHT22;9340;48.756;9.226;2024-02-14T00:44:05;2.80;99.90
18426;DHT22;9340;48.756;9.226;2024-02-14T00:46:32;3.00;99.90
18426;DHT22;9340;48.756;9.226;2024-02-14T00:48:58;3.10;99.90
18426;DHT22;9340;48.756;9.226;2024-02-14T00:51:27;3.20;99.90
18426;DHT22;9340;48.756;9.226;2024-02-14T00:53:53;3.30;99.90
18426;DHT22;9340;48.756;9.226;2024-02-14T00:56:20;3.40;99.90
18426;DHT22;9340;48.756;9.226;2024-02-14T00:58:48;3.50;99.90
18426;DHT22;9340;48.756;9.226;2024-02-14T01:01:15;3.60;99.90
18426;DHT22;9340;48.756;9.226;2024-02-14T01:03:42;3.50;99.90
18426;DHT22;9340;48.756;9.226;2024-02-14T01:06:08;3.60;99.90
18426;DHT22;9340;48.756;9.226;2024-02-14T01:08:36;3.70;99.90
18426;DHT22;9340;48.756;9.226;2024-02-14T01:11:03;3.80;99.90
18426;DHT22;9340;48.756;9.226;2024-02-14T01:13:30;3.80;99.90
18426;DHT22;9340;48.756;9.226;2024-02-14T01:15:57;3.80;99.90
18426;DHT22;9340;48.756;9.226;2024-02-14T01:18:23;3.90;99.90
18426;DHT22;9340;48.756;9.226;2024-02-14T01:20:50;4.10;99.90
18426;DHT22;9340;48.756;9.226;2024-02-14T01:23:17;4.20;99.90
18426;DHT22;9340;48.756;9.226;2024-02-14T01:25:45;4.30;99.90
18426;DHT22;9340;48.756;9.226;2024-02-14T01:28:12;4.30;99.90
18426;DHT22;9340;48.756;9.226;2024-02-14T01:30:38;4.40;99.90
18426;DHT22;9340;48.756;9.226;2024-02-14T01:33:05;4.40;99.90
18426;DHT22;9340;48.756;9.226;2024-02-14T01:35:32;4.50;99.90
18426;DHT22;9340;48.756;9.226;2024-02-14T01:37:58;4.60;99.90
18426;DHT22;9340;48.756;9.226;2024-02-14T01:40:26;4.50;99.90
18426;DHT22;9340;48.756;9.226;2024-02-14T01:42:54;4.50;99.90
18426;DHT22;9340;48.756;9.226;2024-02-14T01:45:21;4.60;99.90
18426;DHT22;9340;48.756;9.226;2024-02-14T01:47:47;4.60;99.90
18426;DHT22;9340;48.756;9.226;2024-02-14T01:50:15;4.70;99.90
18426;DHT22;9340;48.756;9.226;2024-02-14T01:52:44;4.70;99.90
18426;DHT22;9340;48.756;9.226;2024-02-14T01:55:12;4.70;99.90
18426;DHT22;9340;48.756;9.226;2024-02-14T01:57:39;4.80;99.90
18426;DHT22;9340;48.756;9.226;2024-02-14T02:00:08;4.90;99.90
18426;DHT22;9340;48.756;9.226;2024-02-14T02:02:35;4.90;99.90
18426;DHT22;9340;48.756;9.226;2024-02-14T02:05:05;4.90;99.90
18426;DHT22;9340;48.756;9.226;2024-02-14T02:07:32;4.90;99.90
18426;DHT22;9340;48.756;9.226;2024-02-14T02:09:59;4.80;99.90
18426;DHT22;9340;48.756;9.226;2024-02-14T02:12:26;4.80;99.90
18426;DHT22;9340;48.756;9.226;2024-02-14T02:14:53;4.90;99.90
18426;DHT22;9340;48.756;9.226;2024-02-14T02:17:21;4.90;99.90
18426;DHT22;9340;48.756;9.226;2024-02-14T02:19:48;5.00;99.90
18426;DHT22;9340;48.756;9.226;2024-02-14T02:22:15;5.00;99.90
18426;DHT22;9340;48.756;9.226;2024-02-14T02:24:43;5.00;99.90
18426;DHT22;9340;48.756;9.226;2024-02-14T02:27:10;4.90;99.90
18426;DHT22;9340;48.756;9.226;2024-02-14T02:29:38;4.90;99.90
18426;DHT22;9340;48.756;9.226;2024-02-14T02:32:05;5.00;99.90
18426;DHT22;9340;48.756;9.226;2024-02-14T02:34:35;5.10;99.90
18426;DHT22;9340;48.756;9.226;2024-02-14T02:37:04;5.20;99.90
18426;DHT22;9340;48.756;9.226;2024-02-14T02:39:33;5.20;99.90
18426;DHT22;9340;48.756;9.226;2024-02-14T02:42:02;5.30;99.90
18426;DHT22;9340;48.756;9.226;2024-02-14T02:44:30;5.30;99.90
18426;DHT22;9340;48.756;9.226;2024-02-14T02:46:57;5.40;99.90
18426;DHT22;9340;48.756;9.226;2024-02-14T02:49:26;5.40;99.90
18426;DHT22;9340;48.756;9.226;2024-02-14T02:51:54;5.40;99.90
18426;DHT22;9340;48.756;9.226;2024-02-14T02:54:21;5.20;99.90
18426;DHT22;9340;48.756;9.226;2024-02-14T02:56:48;5.10;99.90
18426;DHT22;9340;48.756;9.226;2024-02-14T02:59:16;5.10;99.90
18426;DHT22;9340;48.756;9.226;2024-02-14T03:01:43;5.10;99.90
18426;DHT22;9340;48.756;9.226;2024-02-14T03:04:11;5.10;99.90
18426;DHT22;9340;48.756;9.226;2024-02-14T03:06:38;5.10;99.90
18426;DHT22;9340;48.756;9.226;2024-02-14T03:09:05;5.10;99.90
18426;DHT22;9340;48.756;9.226;2024-02-14T03:11:33;5.10;99.90
18426;DHT22;9340;48.756;9.226;2024-02-14T03:14:01;5.10;99.90
18426;DHT22;9340;48.756;9.226;2024-02-14T03:16:29;5.10;99.90
18426;DHT22;9340;48.756;9.226;2024-02-14T03:18:56;5.10;99.90
18426;DHT22;9340;48.756;9.226;2024-02-14T03:21:24;5.20;99.90
18426;DHT22;9340;48.756;9.226;2024-02-14T03:23:50;5.10;99.90
18426;DHT22;9340;48.756;9.226;2024-02-14T03:26:19;5.00;99.90
18426;DHT22;9340;48.756;9.226;2024-02-14T03:28:46;4.90;99.90
18426;DHT22;9340;48.756;9.226;2024-02-14T03:31:14;4.80;99.90
18426;DHT22;9340;48.756;9.226;2024-02-14T03:33:42;4.60;99.90
18426;DHT22;9340;48.756;9.226;2024-02-14T03:36:09;4.60;99.90
18426;DHT22;9340;48.756;9.226;2024-02-14T03:38:36;4.60;99.90
18426;DHT22;9340;48.756;9.226;2024-02-14T03:41:05;4.70;99.90
18426;DHT22;9340;48.756;9.226;2024-02-14T03:43:31;4.70;99.90
18426;DHT22;9340;48.756;9.226;2024-02-14T03:45:58;4.70;99.90
18426;DHT22;9340;48.756;9.226;2024-02-14T03:48:25;4.70;99.90
18426;DHT22;9340;48.756;9.226;2024-02-14T03:50:53;4.70;99.90
18426;DHT22;9340;48.756;9.226;2024-02-14T03:53:20;4.70;99.90
18426;DHT22;9340;48.756;9.226;2024-02-14T03:55:46;4.60;99.90
18426;DHT22;9340;48.756;9.226;2024-02-14T03:58:14;4.70;99.90
18426;DHT22;9340;48.756;9.226;2024-02-14T04:00:42;4.80;99.90
18426;DHT22;9340;48.756;9.226;2024-02-14T04:03:11;4.90;99.90
18426;DHT22;9340;48.756;9.226;2024-02-14T04:05:38;5.00;99.90
18426;DHT22;9340;48.756;9.226;2024-02-14T04:08:06;5.10;99.90
18426;DHT22;9340;48.756;9.226;2024-02-14T04:10:35;5.20;99.90
18426;DHT22;9340;48.756;9.226;2024-02-14T04:13:03;5.20;99.90
18426;DHT22;9340;48.756;9.226;2024-02-14T04:15:30;5.30;99.90
18426;DHT22;9340;48.756;9.226;2024-02-14T04:17:57;5.30;99.90
18426;DHT22;9340;48.756;9.226;2024-02-14T04:20:25;5.30;99.90
18426;DHT22;9340;48.756;9.226;2024-02-14T04:22:51;5.30;99.90
18426;DHT22;9340;48.756;9.226;2024-02-14T04:25:19;5.30;99.90
18426;DHT22;9340;48.756;9.226;2024-02-14T04:27:46;5.30;99.90
18426;DHT22;9340;48.756;9.226;2024-02-14T04:30:13;5.30;99.90
18426;DHT22;9340;48.756;9.226;2024-02-14T04:32:40;5.30;99.90
18426;DHT22;9340;48.756;9.226;2024-02-14T04:35:09;5.30;99.90
18426;DHT22;9340;48.756;9.226;2024-02-14T04:37:35;5.30;99.90
18426;DHT22;9340;48.756;9.226;2024-02-14T04:40:03;5.30;99.90
18426;DHT22;9340;48.756;9.226;2024-02-14T04:42:31;5.20;99.90
18426;DHT22;9340;48.756;9.226;2024-02-14T04:44:58;5.10;99.90
18426;DHT22;9340;48.756;9.226;2024-02-14T04:47:25;5.10;99.90
18426;DHT22;9340;48.756;9.226;2024-02-14T04:49:52;5.10;99.90
18426;DHT22;9340;48.756;9.226;2024-02-14T04:52:18;5.00;99.90
18426;DHT22;9340;48.756;9.226;2024-02-14T04:54:45;5.10;99.90
18426;DHT22;9340;48.756;9.226;2024-02-14T04:57:11;5.00;99.90
18426;DHT22;9340;48.756;9.226;2024-02-14T04:59:40;5.10;99.90
18426;DHT22;9340;48.756;9.226;2024-02-14T05:02:06;5.20;99.90
18426;DHT22;9340;48.756;9.226;2024-02-14T05:04:33;5.30;99.90
18426;DHT22;9340;48.756;9.226;2024-02-14T05:07:03;5.40;99.90
18426;DHT22;9340;48.756;9.226;2024-02-14T05:09:30;5.50;99.90
18426;DHT22;9340;48.756;9.226;2024-02-14T05:11:56;5.50;99.90
18426;DHT22;9340;48.756;9.226;2024-02-14T05:14:23;5.60;99.90
18426;DHT22;9340;48.756;9.226;2024-02-14T05:16:51;5.50;99.90
18426;DHT22;9340;48.756;9.226;2024-02-14T05:19:18;5.60;99.90
18426;DHT22;9340;48.756;9.226;2024-02-14T05:21:47;5.50;99.90
18426;DHT22;9340;48.756;9.226;2024-02-14T05:24:13;5.40;99.90
18426;DHT22;9340;48.756;9.226;2024-02-14T05:26:40;5.30;99.90
18426;DHT22;9340;48.756;9.226;2024-02-14T05:29:07;5.40;99.90
18426;DHT22;9340;48.756;9.226;2024-02-14T05:31:43;5.20;99.90
18426;DHT22;9340;48.756;9.226;2024-02-14T05:34:11;5.20;99.90
18426;DHT22;9340;48.756;9.226;2024-02-14T05:36:38;5.30;99.90
18426;DHT22;9340;48.756;9.226;2024-02-14T05:39:05;5.20;99.90
18426;DHT22;9340;48.756;9.226;2024-02-14T05:41:32;5.30;99.90
18426;DHT22;9340;48.756;9.226;2024-02-14T05:44:00;5.20;99.90
18426;DHT22;9340;48.756;9.226;2024-02-14T05:46:26;5.10;99.90
18426;DHT22;9340;48.756;9.226;2024-02-14T05:48:53;4.90;99.90
18426;DHT22;9340;48.756;9.226;2024-02-14T05:51:24;5.00;99.90
18426;DHT22;9340;48.756;9.226;2024-02-14T05:53:50;4.90;99.90
18426;DHT22;9340;48.756;9.226;2024-02-14T05:56:17;4.70;99.90
18426;DHT22;9340;48.756;9.226;2024-02-14T05:58:44;4.70;99.90
18426;DHT22;9340;48.756;9.226;2024-02-14T06:01:10;4.70;99.90
18426;DHT22;9340;48.756;9.226;2024-02-14T06:03:37;4.70;99.90
18426;DHT22;9340;48.756;9.226;2024-02-14T06:06:04;4.60;99.90
18426;DHT22;9340;48.756;9.226;2024-02-14T06:08:32;4.60;99.90
18426;DHT22;9340;48.756;9.226;2024-02-14T06:10:59;4.60;99.90
18426;DHT22;9340;48.756;9.226;2024-02-14T06:13:25;4.70;99.90
18426;DHT22;9340;48.756;9.226;2024-02-14T06:15:52;4.60;99.90
18426;DHT22;9340;48.756;9.226;2024-02-14T06:18:19;4.70;99.90
18426;DHT22;9340;48.756;9.226;2024-02-14T06:20:45;4.70;99.90
18426;DHT22;9340;48.756;9.226;2024-02-14T06:23:12;4.70;99.90
18426;DHT22;9340;48.756;9.226;2024-02-14T06:25:40;4.80;99.90
18426;DHT22;9340;48.756;9.226;2024-02-14T06:28:07;4.80;99.90
18426;DHT22;9340;48.756;9.226;2024-02-14T06:30:35;4.80;99.90
18426;DHT22;9340;48.756;9.226;2024-02-14T06:33:01;4.80;99.90
18426;DHT22;9340;48.756;9.226;2024-02-14T06:35:29;4.80;99.90
18426;DHT22;9340;48.756;9.226;2024-02-14T06:37:55;4.80;99.90
18426;DHT22;9340;48.756;9.226;2024-02-14T06:40:22;4.80;99.90
18426;DHT22;9340;48.756;9.226;2024-02-14T06:42:51;4.80;99.90
18426;DHT22;9340;48.756;9.226;2024-02-14T06:45:20;4.80;99.90
18426;DHT22;9340;48.756;9.226;2024-02-14T06:47:46;4.90;99.90
18426;DHT22;9340;48.756;9.226;2024-02-14T06:50:13;5.00;99.90
18426;DHT22;9340;48.756;9.226;2024-02-14T06:52:40;5.00;99.90
18426;DHT22;9340;48.756;9.226;2024-02-14T06:55:07;5.20;99.90
18426;DHT22;9340;48.756;9.226;2024-02-14T06:57:34;5.40;99.90
18426;DHT22;9340;48.756;9.226;2024-02-14T07:00:02;5.50;99.90
18426;DHT22;9340;48.756;9.226;2024-02-14T07:02:31;5.60;99.90
18426;DHT22;9340;48.756;9.226;2024-02-14T07:04:57;5.70;99.90
18426;DHT22;9340;48.756;9.226;2024-02-14T07:07:24;5.70;99.90
18426;DHT22;9340;48.756;9.226;2024-02-14T07:09:51;5.70;99.90
18426;DHT22;9340;48.756;9.226;2024-02-14T07:12:17;5.80;99.90
18426;DHT22;9340;48.756;9.226;2024-02-14T07:14:44;6.00;99.90
18426;DHT22;9340;48.756;9.226;2024-02-14T07:17:12;6.00;99.90
18426;DHT22;9340;48.756;9.226;2024-02-14T07:19:39;6.00;99.90
18426;DHT22;9340;48.756;9.226;2024-02-14T07:22:08;6.00;99.90
18426;DHT22;9340;48.756;9.226;2024-02-14T07:24:34;6.10;99.90
18426;DHT22;9340;48.756;9.226;2024-02-14T07:27:01;6.20;99.90
18426;DHT22;9340;48.756;9.226;2024-02-14T07:29:28;6.30;99.90
18426;DHT22;9340;48.756;9.226;2024-02-14T07:31:54;6.50;99.90
18426;DHT22;9340;48.756;9.226;2024-02-14T07:34:25;6.60;99.90
18426;DHT22;9340;48.756;9.226;2024-02-14T07:36:52;6.60;99.90
18426;DHT22;9340;48.756;9.226;2024-02-14T07:39:18;6.70;99.90
18426;DHT22;9340;48.756;9.226;2024-02-14T07:41:45;6.70;99.90
18426;DHT22;9340;48.756;9.226;2024-02-14T07:44:12;6.80;99.90
18426;DHT22;9340;48.756;9.226;2024-02-14T07:46:38;6.70;99.90
18426;DHT22;9340;48.756;9.226;2024-02-14T07:49:05;6.60;99.90
18426;DHT22;9340;48.756;9.226;2024-02-14T07:51:33;6.70;99.90
18426;DHT22;9340;48.756;9.226;2024-02-14T07:54:02;6.80;99.90
18426;DHT22;9340;48.756;9.226;2024-02-14T07:56:29;7.00;99.90
18426;DHT22;9340;48.756;9.226;2024-02-14T07:58:56;7.10;99.90
18426;DHT22;9340;48.756;9.226;2024-02-14T08:01:22;7.10;99.90
18426;DHT22;9340;48.756;9.226;2024-02-14T08:03:49;7.10;99.90
18426;DHT22;9340;48.756;9.226;2024-02-14T08:06:16;7.00;99.90
18426;DHT22;9340;48.756;9.226;2024-02-14T08:08:44;6.90;99.90
18426;DHT22;9340;48.756;9.226;2024-02-14T08:11:10;6.90;99.90
18426;DHT22;9340;48.756;9.226;2024-02-14T08:13:37;6.80;99.90
18426;DHT22;9340;48.756;9.226;2024-02-14T08:16:05;6.70;99.90
18426;DHT22;9340;48.756;9.226;2024-02-14T08:18:33;6.70;99.90
18426;DHT22;9340;48.756;9.226;2024-02-14T08:21:00;6.80;99.90
18426;DHT22;9340;48.756;9.226;2024-02-14T08:23:27;6.90;99.90
18426;DHT22;9340;48.756;9.226;2024-02-14T08:25:55;7.10;99.90
18426;DHT22;9340;48.756;9.226;2024-02-14T08:28:21;7.20;99.90
18426;DHT22;9340;48.756;9.226;2024-02-14T08:30:48;7.40;99.90
18426;DHT22;9340;48.756;9.226;2024-02-14T08:33:15;7.40;99.90
18426;DHT22;9340;48.756;9.226;2024-02-14T08:35:42;7.40;99.90
18426;DHT22;9340;48.756;9.226;2024-02-14T08:38:09;7.50;99.90
18426;DHT22;9340;48.756;9.226;2024-02-14T08:40:35;7.70;99.90
18426;DHT22;9340;48.756;9.226;2024-02-14T08:43:04;7.80;99.90
18426;DHT22;9340;48.756;9.226;2024-02-14T08:45:30;8.00;99.90
18426;DHT22;9340;48.756;9.226;2024-02-14T08:47:57;8.30;99.90
18426;DHT22;9340;48.756;9.226;2024-02-14T08:50:24;8.60;99.90
18426;DHT22;9340;48.756;9.226;2024-02-14T08:52:50;8.90;99.90
18426;DHT22;9340;48.756;9.226;2024-02-14T08:55:17;9.10;99.90
18426;DHT22;9340;48.756;9.226;2024-02-14T08:57:44;9.30;99.90
18426;DHT22;9340;48.756;9.226;2024-02-14T09:00:15;9.50;99.90
18426;DHT22;9340;48.756;9.226;2024-02-14T09:02:44;9.60;99.90
18426;DHT22;9340;48.756;9.226;2024-02-14T09:05:12;9.90;99.90
18426;DHT22;9340;48.756;9.226;2024-02-14T09:07:39;9.90;99.90
18426;DHT22;9340;48.756;9.226;2024-02-14T09:10:07;10.00;99.90
18426;DHT22;9340;48.756;9.226;2024-02-14T09:12:36;10.20;99.90
18426;DHT22;9340;48.756;9.226;2024-02-14T09:15:03;10.50;99.90
18426;DHT22;9340;48.756;9.226;2024-02-14T09:17:31;10.60;99.90
18426;DHT22;9340;48.756;9.226;2024-02-14T09:19:58;10.80;99.90
18426;DHT22;9340;48.756;9.226;2024-02-14T09:22:24;10.90;99.90
18426;DHT22;9340;48.756;9.226;2024-02-14T09:24:51;11.00;99.90
18426;DHT22;9340;48.756;9.226;2024-02-14T09:27:18;11.10;99.90
18426;DHT22;9340;48.756;9.226;2024-02-14T09:29:45;11.20;99.90
18426;DHT22;9340;48.756;9.226;2024-02-14T09:32:11;11.30;99.90
18426;DHT22;9340;48.756;9.226;2024-02-14T09:34:40;11.40;99.90
18426;DHT22;9340;48.756;9.226;2024-02-14T09:37:07;11.50;99.90
18426;DHT22;9340;48.756;9.226;2024-02-14T09:39:34;11.60;99.90
18426;DHT22;9340;48.756;9.226;2024-02-14T09:42:08;11.70;99.90
18426;DHT22;9340;48.756;9.226;2024-02-14T09:44:36;11.90;99.90
18426;DHT22;9340;48.756;9.226;2024-02-14T09:47:05;11.90;99.90
18426;DHT22;9340;48.756;9.226;2024-02-14T09:49:32;12.10;99.90
18426;DHT22;9340;48.756;9.226;2024-02-14T09:52:03;12.00;99.90
18426;DHT22;9340;48.756;9.226;2024-02-14T09:54:31;12.00;99.90
18426;DHT22;9340;48.756;9.226;2024-02-14T09:57:00;12.00;99.90
18426;DHT22;9340;48.756;9.226;2024-02-14T09:59:29;12.00;99.90
18426;DHT22;9340;48.756;9.226;2024-02-14T10:01:56;11.90;99.90
18426;DHT22;9340;48.756;9.226;2024-02-14T10:04:23;11.90;99.90
18426;DHT22;9340;48.756;9.226;2024-02-14T10:06:51;11.80;99.90
18426;DHT22;9340;48.756;9.226;2024-02-14T10:09:20;11.70;99.90
18426;DHT22;9340;48.756;9.226;2024-02-14T10:11:47;11.70;99.90
18426;DHT22;9340;48.756;9.226;2024-02-14T10:14:14;11.60;99.90
18426;DHT22;9340;48.756;9.226;2024-02-14T10:16:40;11.60;99.90
18426;DHT22;9340;48.756;9.226;2024-02-14T10:19:14;11.60;99.90
18426;DHT22;9340;48.756;9.226;2024-02-14T10:21:41;11.60;99.90
18426;DHT22;9340;48.756;9.226;2024-02-14T10:24:08;11.60;99.90
18426;DHT22;9340;48.756;9.226;2024-02-14T10:26:37;11.60;99.90
18426;DHT22;9340;48.756;9.226;2024-02-14T10:29:05;11.60;99.90
18426;DHT22;9340;48.756;9.226;2024-02-14T10:31:36;11.70;99.90
18426;DHT22;9340;48.756;9.226;2024-02-14T10:34:02;11.80;99.90
18426;DHT22;9340;48.756;9.226;2024-02-14T10:36:32;11.90;99.90
18426;DHT22;9340;48.756;9.226;2024-02-14T10:39:01;12.00;99.90
18426;DHT22;9340;48.756;9.226;2024-02-14T10:41:30;12.00;99.90
18426;DHT22;9340;48.756;9.226;2024-02-14T10:44:02;12.10;99.90
18426;DHT22;9340;48.756;9.226;2024-02-14T10:46:31;12.20;99.90
18426;DHT22;9340;48.756;9.226;2024-02-14T10:49:02;12.30;99.90
18426;DHT22;9340;48.756;9.226;2024-02-14T10:51:32;12.40;99.90
18426;DHT22;9340;48.756;9.226;2024-02-14T10:54:01;12.40;99.90
18426;DHT22;9340;48.756;9.226;2024-02-14T10:56:31;12.50;99.90
18426;DHT22;9340;48.756;9.226;2024-02-14T10:58:58;12.70;99.90
18426;DHT22;9340;48.756;9.226;2024-02-14T11:01:28;12.90;99.90
18426;DHT22;9340;48.756;9.226;2024-02-14T11:03:58;13.10;99.90
18426;DHT22;9340;48.756;9.226;2024-02-14T11:06:25;13.10;99.90
18426;DHT22;9340;48.756;9.226;2024-02-14T11:09:00;13.30;99.90
18426;DHT22;9340;48.756;9.226;2024-02-14T11:11:28;13.50;99.90
18426;DHT22;9340;48.756;9.226;2024-02-14T11:13:56;13.60;99.90
18426;DHT22;9340;48.756;9.226;2024-02-14T11:16:26;13.80;99.90
18426;DHT22;9340;48.756;9.226;2024-02-14T11:18:54;14.20;99.90
18426;DHT22;9340;48.756;9.226;2024-02-14T11:21:31;14.20;99.90
18426;DHT22;9340;48.756;9.226;2024-02-14T11:24:04;14.30;99.90
18426;DHT22;9340;48.756;9.226;2024-02-14T11:26:38;14.30;99.90
18426;DHT22;9340;48.756;9.226;2024-02-14T11:29:05;14.30;99.90
18426;DHT22;9340;48.756;9.226;2024-02-14T11:31:34;14.40;99.90
18426;DHT22;9340;48.756;9.226;2024-02-14T11:34:04;14.50;99.90
18426;DHT22;9340;48.756;9.226;2024-02-14T11:36:32;14.50;99.90
18426;DHT22;9340;48.756;9.226;2024-02-14T11:39:02;14.40;99.90
18426;DHT22;9340;48.756;9.226;2024-02-14T11:41:29;14.50;99.90
18426;DHT22;9340;48.756;9.226;2024-02-14T11:43:56;14.50;99.90
18426;DHT22;9340;48.756;9.226;2024-02-14T11:46:29;14.40;99.90
18426;DHT22;9340;48.756;9.226;2024-02-14T11:48:58;14.30;99.90
18426;DHT22;9340;48.756;9.226;2024-02-14T11:51:26;14.30;99.90
18426;DHT22;9340;48.756;9.226;2024-02-14T11:53:53;14.50;99.90
18426;DHT22;9340;48.756;9.226;2024-02-14T11:56:21;14.70;99.90
18426;DHT22;9340;48.756;9.226;2024-02-14T11:58:47;14.80;99.90
18426;DHT22;9340;48.756;9.226;2024-02-14T12:01:16;14.80;99.90
18426;DHT22;9340;48.756;9.226;2024-02-14T12:03:43;14.90;99.90
18426;DHT22;9340;48.756;9.226;2024-02-14T12:06:12;15.00;99.90
18426;DHT22;9340;48.756;9.226;2024-02-14T12:08:41;14.90;99.90
18426;DHT22;9340;48.756;9.226;2024-02-14T12:11:07;15.00;99.90
18426;DHT22;9340;48.756;9.226;2024-02-14T12:13:34;15.00;99.90
18426;DHT22;9340;48.756;9.226;2024-02-14T12:16:03;15.10;99.90
18426;DHT22;9340;48.756;9.226;2024-02-14T12:18:32;15.10;99.90
18426;DHT22;9340;48.756;9.226;2024-02-14T12:21:06;15.20;99.90
18426;DHT22;9340;48.756;9.226;2024-02-14T12:23:35;15.10;99.90
18426;DHT22;9340;48.756;9.226;2024-02-14T12:26:03;15.30;99.90
18426;DHT22;9340;48.756;9.226;2024-02-14T12:28:31;15.40;99.90
18426;DHT22;9340;48.756;9.226;2024-02-14T12:30:58;15.40;99.90
18426;DHT22;9340;48.756;9.226;2024-02-14T12:33:26;15.40;99.90
18426;DHT22;9340;48.756;9.226;2024-02-14T12:35:54;15.40;99.90
18426;DHT22;9340;48.756;9.226;2024-02-14T12:38:22;15.30;99.90
18426;DHT22;9340;48.756;9.226;2024-02-14T12:40:50;15.30;99.90
18426;DHT22;9340;48.756;9.226;2024-02-14T12:43:19;15.10;99.90
18426;DHT22;9340;48.756;9.226;2024-02-14T12:45:46;15.10;99.90
18426;DHT22;9340;48.756;9.226;2024-02-14T12:48:13;15.10;99.90
18426;DHT22;9340;48.756;9.226;2024-02-14T12:50:41;15.20;99.90
18426;DHT22;9340;48.756;9.226;2024-02-14T12:53:13;15.60;99.90
18426;DHT22;9340;48.756;9.226;2024-02-14T12:55:39;15.80;99.90
18426;DHT22;9340;48.756;9.226;2024-02-14T12:58:07;16.00;99.90
18426;DHT22;9340;48.756;9.226;2024-02-14T13:00:35;16.10;99.90
18426;DHT22;9340;48.756;9.226;2024-02-14T13:03:03;16.10;99.90
18426;DHT22;9340;48.756;9.226;2024-02-14T13:05:31;16.00;99.90
18426;DHT22;9340;48.756;9.226;2024-02-14T13:07:59;16.00;99.90
18426;DHT22;9340;48.756;9.226;2024-02-14T13:10:26;16.00;99.90
18426;DHT22;9340;48.756;9.226;2024-02-14T13:12:52;16.00;99.90
18426;DHT22;9340;48.756;9.226;2024-02-14T13:15:20;16.00;99.90
18426;DHT22;9340;48.756;9.226;2024-02-14T13:17:47;16.10;99.90
18426;DHT22;9340;48.756;9.226;2024-02-14T13:20:14;16.10;99.90
18426;DHT22;9340;48.756;9.226;2024-02-14T13:22:41;16.00;99.90
18426;DHT22;9340;48.756;9.226;2024-02-14T13:25:08;16.00;99.90
18426;DHT22;9340;48.756;9.226;2024-02-14T13:27:35;16.10;99.90
18426;DHT22;9340;48.756;9.226;2024-02-14T13:30:01;16.10;99.90
18426;DHT22;9340;48.756;9.226;2024-02-14T13:32:29;16.10;99.90
18426;DHT22;9340;48.756;9.226;2024-02-14T13:34:56;16.10;99.90
18426;DHT22;9340;48.756;9.226;2024-02-14T13:37:23;16.00;99.90
18426;DHT22;9340;48.756;9.226;2024-02-14T13:39:50;15.90;99.90
18426;DHT22;9340;48.756;9.226;2024-02-14T13:42:16;15.90;99.90
18426;DHT22;9340;48.756;9.226;2024-02-14T13:44:43;15.90;99.90
18426;DHT22;9340;48.756;9.226;2024-02-14T13:47:10;16.00;99.90
18426;DHT22;9340;48.756;9.226;2024-02-14T13:49:38;16.00;99.90
18426;DHT22;9340;48.756;9.226;2024-02-14T13:52:05;15.90;99.90
18426;DHT22;9340;48.756;9.226;2024-02-14T13:54:31;15.90;99.90
18426;DHT22;9340;48.756;9.226;2024-02-14T13:56:58;15.90;99.90
18426;DHT22;9340;48.756;9.226;2024-02-14T13:59:24;15.80;99.90
18426;DHT22;9340;48.756;9.226;2024-02-14T14:01:51;15.90;99.90
18426;DHT22;9340;48.756;9.226;2024-02-14T14:04:18;15.90;99.90
18426;DHT22;9340;48.756;9.226;2024-02-14T14:06:47;15.90;99.90
18426;DHT22;9340;48.756;9.226;2024-02-14T14:09:14;16.00;99.90
18426;DHT22;9340;48.756;9.226;2024-02-14T14:11:41;16.10;99.90
18426;DHT22;9340;48.756;9.226;2024-02-14T14:14:07;16.10;99.90
18426;DHT22;9340;48.756;9.226;2024-02-14T14:16:37;16.10;99.90
18426;DHT22;9340;48.756;9.226;2024-02-14T14:19:03;16.00;99.90
18426;DHT22;9340;48.756;9.226;2024-02-14T14:21:30;15.90;99.90
18426;DHT22;9340;48.756;9.226;2024-02-14T14:23:58;15.80;99.90
18426;DHT22;9340;48.756;9.226;2024-02-14T14:26:24;15.80;99.90
18426;DHT22;9340;48.756;9.226;2024-02-14T14:28:51;15.80;99.90
18426;DHT22;9340;48.756;9.226;2024-02-14T14:31:20;15.70;99.90
18426;DHT22;9340;48.756;9.226;2024-02-14T14:33:46;15.70;99.90
18426;DHT22;9340;48.756;9.226;2024-02-14T14:36:14;15.70;99.90
18426;DHT22;9340;48.756;9.226;2024-02-14T14:38:41;15.80;99.90
18426;DHT22;9340;48.756;9.226;2024-02-14T14:41:09;15.60;99.90
18426;DHT22;9340;48.756;9.226;2024-02-14T14:43:35;15.60;99.90
18426;DHT22;9340;48.756;9.226;2024-02-14T14:46:02;15.60;99.90
18426;DHT22;9340;48.756;9.226;2024-02-14T14:48:29;15.60;99.90
18426;DHT22;9340;48.756;9.226;2024-02-14T14:50:55;15.50;99.90
18426;DHT22;9340;48.756;9.226;2024-02-14T14:53:22;15.50;99.90
18426;DHT22;9340;48.756;9.226;2024-02-14T14:55:50;15.40;99.90
18426;DHT22;9340;48.756;9.226;2024-02-14T14:58:19;15.40;99.90
18426;DHT22;9340;48.756;9.226;2024-02-14T15:00:46;15.40;99.90
18426;DHT22;9340;48.756;9.226;2024-02-14T15:03:13;15.40;99.90
18426;DHT22;9340;48.756;9.226;2024-02-14T15:05:40;15.30;99.90
18426;DHT22;9340;48.756;9.226;2024-02-14T15:08:07;15.30;99.90
18426;DHT22;9340;48.756;9.226;2024-02-14T15:10:34;15.30;99.90
18426;DHT22;9340;48.756;9.226;2024-02-14T15:13:04;15.30;99.90
18426;DHT22;9340;48.756;9.226;2024-02-14T15:15:32;15.10;99.90
18426;DHT22;9340;48.756;9.226;2024-02-14T15:17:59;15.10;99.90
18426;DHT22;9340;48.756;9.226;2024-02-14T15:20:26;15.10;99.90
18426;DHT22;9340;48.756;9.226;2024-02-14T15:22:53;15.10;99.90
18426;DHT22;9340;48.756;9.226;2024-02-14T15:25:20;15.00;99.90
18426;DHT22;9340;48.756;9.226;2024-02-14T15:27:47;15.10;99.90
18426;DHT22;9340;48.756;9.226;2024-02-14T15:30:20;15.10;99.90
18426;DHT22;9340;48.756;9.226;2024-02-14T15:33:06;15.10;99.90
18426;DHT22;9340;48.756;9.226;2024-02-14T15:35:48;15.20;99.90
18426;DHT22;9340;48.756;9.226;2024-02-14T15:38:15;15.30;99.90
18426;DHT22;9340;48.756;9.226;2024-02-14T15:40:44;15.30;99.90
18426;DHT22;9340;48.756;9.226;2024-02-14T15:43:11;15.30;99.90
18426;DHT22;9340;48.756;9.226;2024-02-14T15:45:37;15.30;99.90
18426;DHT22;9340;48.756;9.226;2024-02-14T15:48:06;15.30;99.90
18426;DHT22;9340;48.756;9.226;2024-02-14T15:50:33;15.30;99.90
18426;DHT22;9340;48.756;9.226;2024-02-14T15:53:01;15.30;99.90
18426;DHT22;9340;48.756;9.226;2024-02-14T15:55:27;15.20;99.90
18426;DHT22;9340;48.756;9.226;2024-02-14T15:57:55;15.10;99.90